CZ-0134 weather

Nová Včelnice Airstrip
South Bohemian Region, Czechia

Public forecast

Using degrees Celsius for public forecast. Weather courtesy of forecast.io.

METAR (pilot weather report)

Closest report is Náměšť Air Base, 41.5 nm (76.9 km) E. Retrieved 2019/07/21 20:00 UTC (23 minutes ago):

LKNA 212000Z 30009KT CAVOK 17/15 Q1023

TAF (pilot weather forecast)

Closest forecast is Náměšť Air Base, 41.5 nm (76.9 km) E. Retrieved 2019/07/21 18:00 UTC (2 hours ago):

TAF LKNA 211700Z 2118/2218 31007KT CAVOK PROB40 TEMPO 2118/2120 29016G28KT 5000 TSRA SCT035CB